sensor_id;sensor_type;location;lat;lon;timestamp;pressure;altitude;pressure_sealevel;temperature
27826;BMP280;15077;49.704;9.908;2022-09-09T00:04:30;97794.63;;;20.59
27826;BMP280;15077;49.704;9.908;2022-09-09T00:09:56;97780.81;;;20.51
27826;BMP280;15077;49.704;9.908;2022-09-09T00:12:59;97772.63;;;20.46
27826;BMP280;15077;49.704;9.908;2022-09-09T00:19:18;97822.19;;;20.39
27826;BMP280;15077;49.704;9.908;2022-09-09T00:22:25;97824.59;;;20.31
27826;BMP280;15077;49.704;9.908;2022-09-09T00:24:54;97815.69;;;20.35
27826;BMP280;15077;49.704;9.908;2022-09-09T00:27:35;97806.19;;;20.35
27826;BMP280;15077;49.704;9.908;2022-09-09T00:30:26;97780.72;;;20.32
27826;BMP280;15077;49.704;9.908;2022-09-09T00:33:02;97758.09;;;20.36
27826;BMP280;15077;49.704;9.908;2022-09-09T00:35:42;97760.41;;;20.39
27826;BMP280;15077;49.704;9.908;2022-09-09T00:38:38;97773.81;;;20.33
27826;BMP280;15077;49.704;9.908;2022-09-09T00:41:21;97767.03;;;20.32
27826;BMP280;15077;49.704;9.908;2022-09-09T00:52:08;97759.00;;;20.25
27826;BMP280;15077;49.704;9.908;2022-09-09T00:57:31;97745.13;;;20.17
27826;BMP280;15077;49.704;9.908;2022-09-09T01:00:29;97737.28;;;20.18
27826;BMP280;15077;49.704;9.908;2022-09-09T01:09:26;97757.06;;;20.18
27826;BMP280;15077;49.704;9.908;2022-09-09T01:15:08;97757.34;;;20.15
27826;BMP280;15077;49.704;9.908;2022-09-09T01:17:50;97752.72;;;20.18
27826;BMP280;15077;49.704;9.908;2022-09-09T01:20:27;97750.03;;;20.20
27826;BMP280;15077;49.704;9.908;2022-09-09T01:26:03;97755.75;;;20.23
27826;BMP280;15077;49.704;9.908;2022-09-09T01:28:32;97758.06;;;20.26
27826;BMP280;15077;49.704;9.908;2022-09-09T01:31:03;97763.09;;;20.28
27826;BMP280;15077;49.704;9.908;2022-09-09T01:33:29;97763.09;;;20.28
27826;BMP280;15077;49.704;9.908;2022-09-09T01:36:10;97760.63;;;20.26
27826;BMP280;15077;49.704;9.908;2022-09-09T01:38:38;97759.81;;;20.26
27826;BMP280;15077;49.704;9.908;2022-09-09T01:41:04;97755.50;;;20.26
27826;BMP280;15077;49.704;9.908;2022-09-09T01:43:31;97763.09;;;20.28
27826;BMP280;15077;49.704;9.908;2022-09-09T01:46:01;97764.72;;;20.29
27826;BMP280;15077;49.704;9.908;2022-09-09T01:48:28;97767.31;;;20.29
27826;BMP280;15077;49.704;9.908;2022-09-09T01:50:55;97768.91;;;20.30
27826;BMP280;15077;49.704;9.908;2022-09-09T01:53:22;97766.34;;;20.30
27826;BMP280;15077;49.704;9.908;2022-09-09T01:56:56;97769.00;;;20.19
27826;BMP280;15077;49.704;9.908;2022-09-09T02:02:33;97766.03;;;20.23
27826;BMP280;15077;49.704;9.908;2022-09-09T02:05:38;97763.03;;;20.18
27826;BMP280;15077;49.704;9.908;2022-09-09T02:11:08;97757.75;;;20.20
27826;BMP280;15077;49.704;9.908;2022-09-09T02:13:39;97759.00;;;20.25
27826;BMP280;15077;49.704;9.908;2022-09-09T02:19:04;97758.19;;;20.25
27826;BMP280;15077;49.704;9.908;2022-09-09T02:21:33;97752.22;;;20.24
27826;BMP280;15077;49.704;9.908;2022-09-09T02:24:06;97752.78;;;20.28
27826;BMP280;15077;49.704;9.908;2022-09-09T02:26:40;97750.75;;;20.31
27826;BMP280;15077;49.704;9.908;2022-09-09T02:29:25;97752.19;;;20.15
27826;BMP280;15077;49.704;9.908;2022-09-09T02:31:56;97763.09;;;20.28
27826;BMP280;15077;49.704;9.908;2022-09-09T02:34:25;97756.03;;;20.30
27826;BMP280;15077;49.704;9.908;2022-09-09T02:36:54;97753.22;;;20.33
27826;BMP280;15077;49.704;9.908;2022-09-09T02:39:22;97750.50;;;20.34
27826;BMP280;15077;49.704;9.908;2022-09-09T02:41:48;97755.53;;;20.36
27826;BMP280;15077;49.704;9.908;2022-09-09T02:44:18;97753.66;;;20.38
27826;BMP280;15077;49.704;9.908;2022-09-09T02:52:38;97747.38;;;20.31
27826;BMP280;15077;49.704;9.908;2022-09-09T02:57:56;97746.84;;;20.27
27826;BMP280;15077;49.704;9.908;2022-09-09T03:00:25;97749.41;;;20.27
27826;BMP280;15077;49.704;9.908;2022-09-09T03:02:52;97749.50;;;20.26
27826;BMP280;15077;49.704;9.908;2022-09-09T03:05:18;97758.31;;;20.23
27826;BMP280;15077;49.704;9.908;2022-09-09T03:07:44;97756.00;;;20.20
27826;BMP280;15077;49.704;9.908;2022-09-09T03:10:10;97758.00;;;20.17
27826;BMP280;15077;49.704;9.908;2022-09-09T03:12:36;97758.13;;;20.15
27826;BMP280;15077;49.704;9.908;2022-09-09T03:15:02;97761.81;;;20.13
27826;BMP280;15077;49.704;9.908;2022-09-09T03:17:28;97754.34;;;20.10
27826;BMP280;15077;49.704;9.908;2022-09-09T03:19:54;97751.06;;;20.08
27826;BMP280;15077;49.704;9.908;2022-09-09T03:22:20;97747.81;;;20.06
27826;BMP280;15077;49.704;9.908;2022-09-09T03:24:47;97747.00;;;20.05
27826;BMP280;15077;49.704;9.908;2022-09-09T03:27:13;97744.19;;;20.08
27826;BMP280;15077;49.704;9.908;2022-09-09T03:29:40;97746.75;;;20.08
27826;BMP280;15077;49.704;9.908;2022-09-09T03:32:06;97741.47;;;20.10
27826;BMP280;15077;49.704;9.908;2022-09-09T03:34:31;97741.34;;;20.11
27826;BMP280;15077;49.704;9.908;2022-09-09T03:36:57;97743.78;;;20.13
27826;BMP280;15077;49.704;9.908;2022-09-09T03:39:23;97733.25;;;20.16
27826;BMP280;15077;49.704;9.908;2022-09-09T03:41:49;97734.84;;;20.17
27826;BMP280;15077;49.704;9.908;2022-09-09T03:44:15;97720.38;;;20.16
27826;BMP280;15077;49.704;9.908;2022-09-09T03:46:40;97733.25;;;20.16
27826;BMP280;15077;49.704;9.908;2022-09-09T03:49:06;97733.25;;;20.16
27826;BMP280;15077;49.704;9.908;2022-09-09T03:51:32;97725.66;;;20.14
27826;BMP280;15077;49.704;9.908;2022-09-09T03:54:02;97724.69;;;20.15
27826;BMP280;15077;49.704;9.908;2022-09-09T03:56:31;97723.75;;;20.16
27826;BMP280;15077;49.704;9.908;2022-09-09T03:58:57;97717.53;;;20.19
27826;BMP280;15077;49.704;9.908;2022-09-09T04:01:23;97723.38;;;20.21
27826;BMP280;15077;49.704;9.908;2022-09-09T04:03:49;97717.97;;;20.24
27826;BMP280;15077;49.704;9.908;2022-09-09T04:06:15;97721.09;;;20.27
27826;BMP280;15077;49.704;9.908;2022-09-09T04:08:42;97731.94;;;20.31
27826;BMP280;15077;49.704;9.908;2022-09-09T04:11:09;97740.34;;;20.33
27826;BMP280;15077;49.704;9.908;2022-09-09T04:13:37;97738.47;;;20.35
27826;BMP280;15077;49.704;9.908;2022-09-09T04:16:05;97740.91;;;20.36
27826;BMP280;15077;49.704;9.908;2022-09-09T04:18:32;97743.34;;;20.38
27826;BMP280;15077;49.704;9.908;2022-09-09T04:21:00;97740.91;;;20.36
27826;BMP280;15077;49.704;9.908;2022-09-09T04:23:28;97749.56;;;20.35
27826;BMP280;15077;49.704;9.908;2022-09-09T04:25:59;97758.22;;;20.34
27826;BMP280;15077;49.704;9.908;2022-09-09T04:28:30;97746.44;;;20.32
27826;BMP280;15077;49.704;9.908;2022-09-09T04:30:56;97736.41;;;20.29
27826;BMP280;15077;49.704;9.908;2022-09-09T04:33:26;97737.34;;;20.28
27826;BMP280;15077;49.704;9.908;2022-09-09T04:35:53;97742.75;;;20.25
27826;BMP280;15077;49.704;9.908;2022-09-09T04:38:19;97739.47;;;20.23
27826;BMP280;15077;49.704;9.908;2022-09-09T04:40:50;97739.47;;;20.23
27826;BMP280;15077;49.704;9.908;2022-09-09T04:43:18;97744.88;;;20.20
27826;BMP280;15077;49.704;9.908;2022-09-09T04:45:48;97755.88;;;20.22
27826;BMP280;15077;49.704;9.908;2022-09-09T04:48:16;97758.47;;;20.22
27826;BMP280;15077;49.704;9.908;2022-09-09T04:51:02;97766.56;;;20.17
27826;BMP280;15077;49.704;9.908;2022-09-09T04:53:31;97757.63;;;20.21
27826;BMP280;15077;49.704;9.908;2022-09-09T04:56:10;97757.50;;;20.23
27826;BMP280;15077;49.704;9.908;2022-09-09T04:58:37;97754.91;;;20.23
27826;BMP280;15077;49.704;9.908;2022-09-09T05:01:21;97753.31;;;20.22
27826;BMP280;15077;49.704;9.908;2022-09-09T05:03:47;97761.72;;;20.24
27826;BMP280;15077;49.704;9.908;2022-09-09T05:06:19;97764.97;;;20.26
27826;BMP280;15077;49.704;9.908;2022-09-09T05:08:46;97767.53;;;20.26
27826;BMP280;15077;49.704;9.908;2022-09-09T05:11:27;97770.22;;;20.24
27826;BMP280;15077;49.704;9.908;2022-09-09T05:13:54;97769.28;;;20.25
27826;BMP280;15077;49.704;9.908;2022-09-09T05:16:21;97767.44;;;20.27
27826;BMP280;15077;49.704;9.908;2022-09-09T05:18:48;97769.03;;;20.28
27826;BMP280;15077;49.704;9.908;2022-09-09T05:21:17;97775.03;;;20.29
27826;BMP280;15077;49.704;9.908;2022-09-09T05:23:45;97776.88;;;20.27
27826;BMP280;15077;49.704;9.908;2022-09-09T05:26:20;97776.88;;;20.27
27826;BMP280;15077;49.704;9.908;2022-09-09T05:28:46;97782.97;;;20.26
27826;BMP280;15077;49.704;9.908;2022-09-09T05:31:16;97788.13;;;20.26
27826;BMP280;15077;49.704;9.908;2022-09-09T05:33:44;97796.81;;;20.25
27826;BMP280;15077;49.704;9.908;2022-09-09T05:36:18;97788.25;;;20.24
27826;BMP280;15077;49.704;9.908;2022-09-09T05:38:45;97793.53;;;20.23
27826;BMP280;15077;49.704;9.908;2022-09-09T05:41:16;97790.00;;;20.24
27826;BMP280;15077;49.704;9.908;2022-09-09T05:43:44;97785.78;;;20.23
27826;BMP280;15077;49.704;9.908;2022-09-09T05:46:18;97788.38;;;20.23
27826;BMP280;15077;49.704;9.908;2022-09-09T05:48:46;97790.94;;;20.23
27826;BMP280;15077;49.704;9.908;2022-09-09T05:51:17;97799.38;;;20.25
27826;BMP280;15077;49.704;9.908;2022-09-09T05:53:45;97807.78;;;20.27
27826;BMP280;15077;49.704;9.908;2022-09-09T05:58:45;97804.25;;;20.28
27826;BMP280;15077;49.704;9.908;2022-09-09T06:01:30;97810.94;;;20.30
27826;BMP280;15077;49.704;9.908;2022-09-09T06:03:58;97814.31;;;20.31
27826;BMP280;15077;49.704;9.908;2022-09-09T06:06:27;97816.63;;;20.34
27826;BMP280;15077;49.704;9.908;2022-09-09T06:08:57;97814.84;;;20.34
27826;BMP280;15077;49.704;9.908;2022-09-09T06:11:27;97818.00;;;20.38
27826;BMP280;15077;49.704;9.908;2022-09-09T06:13:53;97818.69;;;20.40
27826;BMP280;15077;49.704;9.908;2022-09-09T06:16:24;97810.03;;;20.41
27826;BMP280;15077;49.704;9.908;2022-09-09T06:18:50;97809.19;;;20.40
27826;BMP280;15077;49.704;9.908;2022-09-09T06:21:19;97804.88;;;20.41
27826;BMP280;15077;49.704;9.908;2022-09-09T06:23:46;97807.56;;;20.39
27826;BMP280;15077;49.704;9.908;2022-09-09T06:26:21;97800.66;;;20.40
27826;BMP280;15077;49.704;9.908;2022-09-09T06:28:50;97799.84;;;20.39
27826;BMP280;15077;49.704;9.908;2022-09-09T06:31:20;97808.38;;;20.40
27826;BMP280;15077;49.704;9.908;2022-09-09T06:33:50;97803.13;;;20.21
27826;BMP280;15077;49.704;9.908;2022-09-09T06:36:21;97813.25;;;20.33
27826;BMP280;15077;49.704;9.908;2022-09-09T06:38:48;97812.41;;;20.33
27826;BMP280;15077;49.704;9.908;2022-09-09T06:41:17;97816.22;;;20.38
27826;BMP280;15077;49.704;9.908;2022-09-09T06:43:44;97816.91;;;20.40
27826;BMP280;15077;49.704;9.908;2022-09-09T06:46:16;97815.84;;;20.43
27826;BMP280;15077;49.704;9.908;2022-09-09T06:48:43;97816.53;;;20.44
27826;BMP280;15077;49.704;9.908;2022-09-09T06:51:16;97810.31;;;20.47
27826;BMP280;15077;49.704;9.908;2022-09-09T06:53:44;97818.72;;;20.49
27826;BMP280;15077;49.704;9.908;2022-09-09T06:58:39;97817.38;;;20.54
27826;BMP280;15077;49.704;9.908;2022-09-09T07:01:10;97814.69;;;20.56
27826;BMP280;15077;49.704;9.908;2022-09-09T07:03:36;97816.88;;;20.60
27826;BMP280;15077;49.704;9.908;2022-09-09T07:06:06;97819.06;;;20.65
27826;BMP280;15077;49.704;9.908;2022-09-09T07:08:35;97813.69;;;20.68
27826;BMP280;15077;49.704;9.908;2022-09-09T07:11:07;97817.50;;;20.73
27826;BMP280;15077;49.704;9.908;2022-09-09T07:13:37;97818.88;;;20.77
27826;BMP280;15077;49.704;9.908;2022-09-09T07:16:08;97815.91;;;20.82
27826;BMP280;15077;49.704;9.908;2022-09-09T07:18:35;97815.78;;;20.83
27826;BMP280;15077;49.704;9.908;2022-09-09T07:21:03;97814.41;;;20.89
27826;BMP280;15077;49.704;9.908;2022-09-09T07:23:30;97808.06;;;20.93
27826;BMP280;15077;49.704;9.908;2022-09-09T07:25:57;97814.47;;;20.98
27826;BMP280;15077;49.704;9.908;2022-09-09T07:28:25;97808.66;;;21.05
27826;BMP280;15077;49.704;9.908;2022-09-09T07:31:00;97814.75;;;21.14
27826;BMP280;15077;49.704;9.908;2022-09-09T07:33:33;97814.91;;;21.22
27826;BMP280;15077;49.704;9.908;2022-09-09T07:36:09;97808.94;;;21.31
27826;BMP280;15077;49.704;9.908;2022-09-09T07:38:48;97811.66;;;21.39
27826;BMP280;15077;49.704;9.908;2022-09-09T07:43:49;97808.19;;;21.58
27826;BMP280;15077;49.704;9.908;2022-09-09T07:46:18;97811.72;;;21.67
27826;BMP280;15077;49.704;9.908;2022-09-09T07:48:54;97814.69;;;21.72
27826;BMP280;15077;49.704;9.908;2022-09-09T07:51:25;97815.94;;;21.77
27826;BMP280;15077;49.704;9.908;2022-09-09T07:54:02;97819.56;;;21.84
27826;BMP280;15077;49.704;9.908;2022-09-09T07:56:30;97818.06;;;21.91
27826;BMP280;15077;49.704;9.908;2022-09-09T07:58:58;97821.47;;;22.01
27826;BMP280;15077;49.704;9.908;2022-09-09T08:01:44;97819.28;;;22.06
27826;BMP280;15077;49.704;9.908;2022-09-09T08:04:17;97814.25;;;22.14
27826;BMP280;15077;49.704;9.908;2022-09-09T08:06:48;97824.03;;;22.20
27826;BMP280;15077;49.704;9.908;2022-09-09T08:09:16;97822.78;;;22.24
27826;BMP280;15077;49.704;9.908;2022-09-09T08:11:42;97829.03;;;22.31
27826;BMP280;15077;49.704;9.908;2022-09-09T08:14:10;97836.22;;;22.37
27826;BMP280;15077;49.704;9.908;2022-09-09T08:16:43;97835.00;;;22.41
27826;BMP280;15077;49.704;9.908;2022-09-09T08:19:10;97835.53;;;22.44
27826;BMP280;15077;49.704;9.908;2022-09-09T08:21:39;97831.56;;;22.49
27826;BMP280;15077;49.704;9.908;2022-09-09T08:24:08;97840.34;;;22.56
27826;BMP280;15077;49.704;9.908;2022-09-09T08:26:40;97839.53;;;22.65
27826;BMP280;15077;49.704;9.908;2022-09-09T08:29:09;97838.97;;;22.71
27826;BMP280;15077;49.704;9.908;2022-09-09T08:31:51;97852.28;;;22.76
27826;BMP280;15077;49.704;9.908;2022-09-09T08:34:21;97845.31;;;22.77
27826;BMP280;15077;49.704;9.908;2022-09-09T08:36:49;97849.25;;;22.81
27826;BMP280;15077;49.704;9.908;2022-09-09T08:39:20;97858.50;;;22.83
27826;BMP280;15077;49.704;9.908;2022-09-09T08:47:53;97854.44;;;22.81
27826;BMP280;15077;49.704;9.908;2022-09-09T08:50:28;97867.16;;;22.91
27826;BMP280;15077;49.704;9.908;2022-09-09T08:53:17;97866.09;;;22.94
27826;BMP280;15077;49.704;9.908;2022-09-09T08:56:01;97855.97;;;23.00
27826;BMP280;15077;49.704;9.908;2022-09-09T08:58:35;97852.41;;;23.11
27826;BMP280;15077;49.704;9.908;2022-09-09T09:10:05;97855.78;;;23.38
27826;BMP280;15077;49.704;9.908;2022-09-09T09:12:43;97863.31;;;23.49
27826;BMP280;15077;49.704;9.908;2022-09-09T09:15:23;97850.63;;;23.55
27826;BMP280;15077;49.704;9.908;2022-09-09T09:17:50;97853.44;;;23.62
27826;BMP280;15077;49.704;9.908;2022-09-09T09:20:22;97843.19;;;23.70
27826;BMP280;15077;49.704;9.908;2022-09-09T09:22:54;97843.25;;;23.78
27826;BMP280;15077;49.704;9.908;2022-09-09T09:25:32;97844.44;;;23.83
27826;BMP280;15077;49.704;9.908;2022-09-09T09:28:13;97848.88;;;23.91
27826;BMP280;15077;49.704;9.908;2022-09-09T09:31:09;97853.91;;;23.92
27826;BMP280;15077;49.704;9.908;2022-09-09T09:36:12;97851.00;;;24.12
27826;BMP280;15077;49.704;9.908;2022-09-09T09:38:59;97836.31;;;24.21
27826;BMP280;15077;49.704;9.908;2022-09-09T09:41:39;97848.19;;;24.31
27826;BMP280;15077;49.704;9.908;2022-09-09T09:44:30;97831.94;;;24.39
27826;BMP280;15077;49.704;9.908;2022-09-09T09:47:17;97828.94;;;24.51
27826;BMP280;15077;49.704;9.908;2022-09-09T09:49:57;97823.00;;;24.66
27826;BMP280;15077;49.704;9.908;2022-09-09T09:52:32;97820.66;;;24.81
27826;BMP280;15077;49.704;9.908;2022-09-09T09:55:04;97822.53;;;24.96
27826;BMP280;15077;49.704;9.908;2022-09-09T09:57:33;97811.06;;;25.06
27826;BMP280;15077;49.704;9.908;2022-09-09T10:00:22;97808.34;;;25.24
27826;BMP280;15077;49.704;9.908;2022-09-09T10:02:49;97812.28;;;25.36
27826;BMP280;15077;49.704;9.908;2022-09-09T10:08:03;97820.09;;;25.43
27826;BMP280;15077;49.704;9.908;2022-09-09T10:14:20;97817.16;;;25.54
27826;BMP280;15077;49.704;9.908;2022-09-09T10:26:55;97811.06;;;25.79
27826;BMP280;15077;49.704;9.908;2022-09-09T10:32:37;97804.41;;;26.00
27826;BMP280;15077;49.704;9.908;2022-09-09T10:40:58;97857.47;;;25.98
27826;BMP280;15077;49.704;9.908;2022-09-09T10:55:37;97864.06;;;25.04
27826;BMP280;15077;49.704;9.908;2022-09-09T10:58:05;97865.44;;;24.98
27826;BMP280;15077;49.704;9.908;2022-09-09T11:00:48;97860.56;;;24.88
27826;BMP280;15077;49.704;9.908;2022-09-09T11:03:26;97851.75;;;24.81
27826;BMP280;15077;49.704;9.908;2022-09-09T11:06:05;97854.81;;;24.76
27826;BMP280;15077;49.704;9.908;2022-09-09T11:08:35;97850.75;;;24.74
27826;BMP280;15077;49.704;9.908;2022-09-09T11:11:17;97855.28;;;24.72
27826;BMP280;15077;49.704;9.908;2022-09-09T11:14:11;97849.91;;;24.65
27826;BMP280;15077;49.704;9.908;2022-09-09T11:16:57;97843.38;;;24.53
27826;BMP280;15077;49.704;9.908;2022-09-09T11:19:33;97840.03;;;24.69
27826;BMP280;15077;49.704;9.908;2022-09-09T11:24:59;97835.03;;;24.75
27826;BMP280;15077;49.704;9.908;2022-09-09T11:42:23;97826.53;;;25.32
27826;BMP280;15077;49.704;9.908;2022-09-09T11:44:51;97818.13;;;25.45
27826;BMP280;15077;49.704;9.908;2022-09-09T11:47:30;97808.41;;;25.55
27826;BMP280;15077;49.704;9.908;2022-09-09T11:52:48;97794.50;;;25.72
27826;BMP280;15077;49.704;9.908;2022-09-09T11:55:30;97800.66;;;25.79
27826;BMP280;15077;49.704;9.908;2022-09-09T11:58:18;97798.56;;;25.90
27826;BMP280;15077;49.704;9.908;2022-09-09T12:00:49;97784.09;;;26.04
27826;BMP280;15077;49.704;9.908;2022-09-09T12:03:45;97793.50;;;26.13
27826;BMP280;15077;49.704;9.908;2022-09-09T12:06:29;97789.13;;;26.21
27826;BMP280;15077;49.704;9.908;2022-09-09T12:09:19;97788.28;;;26.21
27826;BMP280;15077;49.704;9.908;2022-09-09T12:11:51;97768.81;;;26.25
27826;BMP280;15077;49.704;9.908;2022-09-09T12:17:24;97781.31;;;26.29
27826;BMP280;15077;49.704;9.908;2022-09-09T12:23:02;97777.22;;;26.42
27826;BMP280;15077;49.704;9.908;2022-09-09T12:28:42;97772.81;;;26.51
27826;BMP280;15077;49.704;9.908;2022-09-09T12:31:22;97775.09;;;26.54
27826;BMP280;15077;49.704;9.908;2022-09-09T12:33:50;97772.16;;;26.57
27826;BMP280;15077;49.704;9.908;2022-09-09T12:36:24;97770.00;;;26.60
27826;BMP280;15077;49.704;9.908;2022-09-09T12:38:55;97778.31;;;26.64
27826;BMP280;15077;49.704;9.908;2022-09-09T12:41:26;97768.38;;;26.67
27826;BMP280;15077;49.704;9.908;2022-09-09T12:44:09;97765.78;;;26.67
27826;BMP280;15077;49.704;9.908;2022-09-09T12:46:43;97767.53;;;26.75
27826;BMP280;15077;49.704;9.908;2022-09-09T12:49:34;97759.91;;;26.73
27826;BMP280;15077;49.704;9.908;2022-09-09T12:52:36;97772.44;;;26.70
27826;BMP280;15077;49.704;9.908;2022-09-09T12:55:06;97768.66;;;26.80
27826;BMP280;15077;49.704;9.908;2022-09-09T12:57:39;97757.22;;;26.89
27826;BMP280;15077;49.704;9.908;2022-09-09T13:00:16;97742.13;;;26.92
27826;BMP280;15077;49.704;9.908;2022-09-09T13:02:52;97741.09;;;27.01
27826;BMP280;15077;49.704;9.908;2022-09-09T13:07:48;97749.03;;;27.08
27826;BMP280;15077;49.704;9.908;2022-09-09T13:10:23;97748.38;;;27.06
27826;BMP280;15077;49.704;9.908;2022-09-09T13:12:50;97740.91;;;27.03
27826;BMP280;15077;49.704;9.908;2022-09-09T13:15:24;97745.16;;;27.04
27826;BMP280;15077;49.704;9.908;2022-09-09T13:18:03;97747.47;;;26.99
27826;BMP280;15077;49.704;9.908;2022-09-09T13:20:31;97746.00;;;26.96
27826;BMP280;15077;49.704;9.908;2022-09-09T13:22:57;97742.94;;;26.93
27826;BMP280;15077;49.704;9.908;2022-09-09T13:25:27;97751.53;;;26.93
27826;BMP280;15077;49.704;9.908;2022-09-09T13:28:05;97736.75;;;26.94
27826;BMP280;15077;49.704;9.908;2022-09-09T13:30:36;97740.97;;;26.95
27826;BMP280;15077;49.704;9.908;2022-09-09T13:33:20;97738.72;;;26.92
27826;BMP280;15077;49.704;9.908;2022-09-09T13:36:08;97737.81;;;26.69
27826;BMP280;15077;49.704;9.908;2022-09-09T13:38:59;97738.75;;;26.76
27826;BMP280;15077;49.704;9.908;2022-09-09T13:41:58;97733.28;;;26.71
27826;BMP280;15077;49.704;9.908;2022-09-09T13:44:29;97724.97;;;26.76
27826;BMP280;15077;49.704;9.908;2022-09-09T13:49:32;97732.59;;;26.69
27826;BMP280;15077;49.704;9.908;2022-09-09T13:52:27;97735.59;;;26.58
27826;BMP280;15077;49.704;9.908;2022-09-09T13:54:56;97737.06;;;26.61
27826;BMP280;15077;49.704;9.908;2022-09-09T13:57:24;97733.00;;;26.58
27826;BMP280;15077;49.704;9.908;2022-09-09T13:59:53;97733.63;;;26.60
27826;BMP280;15077;49.704;9.908;2022-09-09T14:02:20;97736.56;;;26.57
27826;BMP280;15077;49.704;9.908;2022-09-09T14:04:48;97734.13;;;26.56
27826;BMP280;15077;49.704;9.908;2022-09-09T14:07:18;97739.50;;;26.54
27826;BMP280;15077;49.704;9.908;2022-09-09T14:09:44;97735.31;;;26.53
27826;BMP280;15077;49.704;9.908;2022-09-09T14:12:16;97743.78;;;26.47
27826;BMP280;15077;49.704;9.908;2022-09-09T14:14:42;97736.16;;;26.46
27826;BMP280;15077;49.704;9.908;2022-09-09T14:17:09;97731.13;;;26.44
27826;BMP280;15077;49.704;9.908;2022-09-09T14:19:35;97731.75;;;26.46
27826;BMP280;15077;49.704;9.908;2022-09-09T14:22:02;97726.53;;;26.46
27826;BMP280;15077;49.704;9.908;2022-09-09T14:24:28;97724.91;;;26.45
27826;BMP280;15077;49.704;9.908;2022-09-09T14:26:55;97731.75;;;26.46
27826;BMP280;15077;49.704;9.908;2022-09-09T14:29:20;97726.88;;;26.43
27826;BMP280;15077;49.704;9.908;2022-09-09T14:31:46;97720.22;;;26.41
27826;BMP280;15077;49.704;9.908;2022-09-09T14:34:12;97710.66;;;26.41
27826;BMP280;15077;49.704;9.908;2022-09-09T14:36:40;97717.47;;;26.42
27826;BMP280;15077;49.704;9.908;2022-09-09T14:39:07;97727.84;;;26.42
27826;BMP280;15077;49.704;9.908;2022-09-09T14:41:33;97723.00;;;26.39
27826;BMP280;15077;49.704;9.908;2022-09-09T14:43:59;97727.56;;;26.38
27826;BMP280;15077;49.704;9.908;2022-09-09T14:46:25;97727.56;;;26.38
27826;BMP280;15077;49.704;9.908;2022-09-09T14:48:53;97731.47;;;26.34
27826;BMP280;15077;49.704;9.908;2022-09-09T14:51:22;97736.19;;;26.30
27826;BMP280;15077;49.704;9.908;2022-09-09T14:53:53;97739.88;;;26.28
27826;BMP280;15077;49.704;9.908;2022-09-09T14:56:22;97750.63;;;26.25
27826;BMP280;15077;49.704;9.908;2022-09-09T14:58:50;97753.06;;;26.18
27826;BMP280;15077;49.704;9.908;2022-09-09T15:01:19;97741.56;;;26.13
27826;BMP280;15077;49.704;9.908;2022-09-09T15:03:58;97748.72;;;26.11
27826;BMP280;15077;49.704;9.908;2022-09-09T15:06:27;97754.88;;;26.10
27826;BMP280;15077;49.704;9.908;2022-09-09T15:08:54;97753.91;;;26.11
27826;BMP280;15077;49.704;9.908;2022-09-09T15:11:26;97757.47;;;26.10
27826;BMP280;15077;49.704;9.908;2022-09-09T15:13:53;97758.75;;;26.06
27826;BMP280;15077;49.704;9.908;2022-09-09T15:16:26;97765.47;;;26.00
27826;BMP280;15077;49.704;9.908;2022-09-09T15:18:57;97760.25;;;25.92
27826;BMP280;15077;49.704;9.908;2022-09-09T15:21:27;97761.75;;;25.87
27826;BMP280;15077;49.704;9.908;2022-09-09T15:23:53;97758.47;;;25.85
27826;BMP280;15077;49.704;9.908;2022-09-09T15:26:20;97753.28;;;25.85
27826;BMP280;15077;49.704;9.908;2022-09-09T15:28:47;97751.34;;;25.87
27826;BMP280;15077;49.704;9.908;2022-09-09T15:31:22;97746.16;;;25.87
27826;BMP280;15077;49.704;9.908;2022-09-09T15:33:53;97742.56;;;25.88
27826;BMP280;15077;49.704;9.908;2022-09-09T15:36:34;97738.22;;;25.89
27826;BMP280;15077;49.704;9.908;2022-09-09T15:39:03;97731.22;;;25.89
27826;BMP280;15077;49.704;9.908;2022-09-09T15:41:29;97728.63;;;25.89
27826;BMP280;15077;49.704;9.908;2022-09-09T15:43:58;97732.03;;;25.89
27826;BMP280;15077;49.704;9.908;2022-09-09T15:46:45;97740.97;;;25.87
27826;BMP280;15077;49.704;9.908;2022-09-09T15:49:17;97743.22;;;25.82
27826;BMP280;15077;49.704;9.908;2022-09-09T15:51:53;97740.31;;;25.77
27826;BMP280;15077;49.704;9.908;2022-09-09T15:54:22;97733.81;;;25.73
27826;BMP280;15077;49.704;9.908;2022-09-09T15:56:56;97732.19;;;25.72
27826;BMP280;15077;49.704;9.908;2022-09-09T15:59:24;97734.94;;;25.71
27826;BMP280;15077;49.704;9.908;2022-09-09T16:01:50;97740.31;;;25.69
27826;BMP280;15077;49.704;9.908;2022-09-09T16:04:18;97740.31;;;25.69
27826;BMP280;15077;49.704;9.908;2022-09-09T16:06:58;97734.47;;;25.67
27826;BMP280;15077;49.704;9.908;2022-09-09T16:09:25;97738.03;;;25.66
27826;BMP280;15077;49.704;9.908;2022-09-09T16:11:55;97738.72;;;25.68
27826;BMP280;15077;49.704;9.908;2022-09-09T16:14:21;97744.53;;;25.70
27826;BMP280;15077;49.704;9.908;2022-09-09T16:16:48;97742.91;;;25.69
27826;BMP280;15077;49.704;9.908;2022-09-09T16:19:14;97739.66;;;25.67
27826;BMP280;15077;49.704;9.908;2022-09-09T16:21:44;97740.63;;;25.66
27826;BMP280;15077;49.704;9.908;2022-09-09T16:24:14;97744.22;;;25.65
27826;BMP280;15077;49.704;9.908;2022-09-09T16:26:43;97741.09;;;25.62
27826;BMP280;15077;49.704;9.908;2022-09-09T16:29:13;97751.97;;;25.57
27826;BMP280;15077;49.704;9.908;2022-09-09T16:31:40;97754.56;;;25.57
27826;BMP280;15077;49.704;9.908;2022-09-09T16:34:07;97749.69;;;25.54
27826;BMP280;15077;49.704;9.908;2022-09-09T16:36:36;97756.84;;;25.52
27826;BMP280;15077;49.704;9.908;2022-09-09T16:39:10;97747.56;;;25.50
27826;BMP280;15077;49.704;9.908;2022-09-09T16:41:38;97758.28;;;25.47
27826;BMP280;15077;49.704;9.908;2022-09-09T16:44:08;97757.47;;;25.46
27826;BMP280;15077;49.704;9.908;2022-09-09T16:46:38;97760.41;;;25.43
27826;BMP280;15077;49.704;9.908;2022-09-09T16:49:08;97758.94;;;25.41
27826;BMP280;15077;49.704;9.908;2022-09-09T16:51:38;97764.28;;;25.39
27826;BMP280;15077;49.704;9.908;2022-09-09T16:54:07;97758.63;;;25.36
27826;BMP280;15077;49.704;9.908;2022-09-09T16:56:36;97763.97;;;25.35
27826;BMP280;15077;49.704;9.908;2022-09-09T16:59:10;97775.63;;;25.31
27826;BMP280;15077;49.704;9.908;2022-09-09T17:01:39;97774.63;;;25.24
27826;BMP280;15077;49.704;9.908;2022-09-09T17:04:18;97778.50;;;25.12
27826;BMP280;15077;49.704;9.908;2022-09-09T17:06:53;97786.91;;;25.06